createdAt,value
2022-12-03T00:00:42.827Z,7.40
2022-12-03T00:03:09.774Z,7.40
2022-12-03T00:05:36.573Z,7.40
2022-12-03T00:08:03.419Z,7.40
2022-12-03T00:10:30.275Z,7.40
2022-12-03T00:12:57.007Z,7.40
2022-12-03T00:15:24.198Z,7.40
2022-12-03T00:17:50.920Z,7.40
2022-12-03T00:20:20.304Z,7.40
2022-12-03T00:22:46.980Z,7.40
2022-12-03T00:25:13.821Z,7.40
2022-12-03T00:27:40.590Z,7.40
2022-12-03T00:30:08.145Z,7.40
2022-12-03T00:32:34.825Z,7.40
2022-12-03T00:35:01.525Z,7.40
2022-12-03T00:37:28.238Z,7.40
2022-12-03T00:39:54.923Z,7.40
2022-12-03T00:42:21.599Z,7.40
2022-12-03T00:44:48.400Z,7.40
2022-12-03T00:47:15.135Z,7.40
2022-12-03T00:49:41.860Z,7.40
2022-12-03T00:52:08.517Z,7.40
2022-12-03T00:54:35.207Z,7.40
2022-12-03T00:57:01.844Z,7.40
2022-12-03T00:59:28.532Z,7.40
2022-12-03T01:01:55.311Z,7.40
2022-12-03T01:04:22.171Z,7.30
2022-12-03T01:06:48.976Z,7.40
2022-12-03T01:09:15.676Z,7.40
2022-12-03T01:11:42.373Z,7.30
2022-12-03T01:14:11.285Z,7.30
2022-12-03T01:16:38.315Z,7.30
2022-12-03T01:19:05.602Z,7.30
2022-12-03T01:21:32.546Z,7.20
2022-12-03T01:23:59.251Z,7.20
2022-12-03T01:26:25.935Z,7.30
2022-12-03T01:28:52.939Z,7.30
2022-12-03T01:31:20.037Z,7.30
2022-12-03T01:33:46.836Z,7.30
2022-12-03T01:36:13.499Z,7.30
2022-12-03T01:38:40.181Z,7.20
2022-12-03T01:41:11.441Z,7.20
2022-12-03T01:43:38.661Z,7.20
2022-12-03T01:46:05.430Z,7.20
2022-12-03T01:48:33.670Z,7.10
2022-12-03T01:51:00.362Z,7.10
2022-12-03T01:53:27.051Z,7.10
2022-12-03T01:55:53.734Z,7.10
2022-12-03T01:58:20.788Z,7.00
2022-12-03T02:00:47.479Z,7.00
2022-12-03T02:03:19.345Z,7.00
2022-12-03T02:05:46.043Z,7.00
2022-12-03T02:08:31.320Z,7.00
2022-12-03T02:10:59.560Z,7.00
2022-12-03T02:13:26.305Z,7.00
2022-12-03T02:15:53.039Z,7.10
2022-12-03T02:18:19.771Z,7.10
2022-12-03T02:21:10.497Z,7.10
2022-12-03T02:24:06.270Z,7.10
2022-12-03T02:26:32.949Z,7.10
2022-12-03T02:28:59.631Z,7.10
2022-12-03T02:31:26.376Z,7.10
2022-12-03T02:33:53.146Z,7.10
2022-12-03T02:36:19.890Z,7.10
2022-12-03T02:38:46.588Z,7.10
2022-12-03T02:41:14.124Z,7.10
2022-12-03T02:43:40.815Z,7.10
2022-12-03T02:46:07.479Z,7.10
2022-12-03T02:48:38.335Z,7.10
2022-12-03T02:51:07.234Z,7.10
2022-12-03T02:53:40.192Z,7.10
2022-12-03T02:56:06.948Z,7.10
2022-12-03T02:58:33.610Z,7.10
2022-12-03T03:01:00.364Z,7.10
2022-12-03T03:03:27.709Z,7.10
2022-12-03T03:05:54.400Z,7.10
2022-12-03T03:08:21.098Z,7.10
2022-12-03T03:10:47.812Z,7.10
2022-12-03T03:13:16.612Z,7.10
2022-12-03T03:15:43.422Z,7.10
2022-12-03T03:18:10.637Z,7.10
2022-12-03T03:20:37.448Z,7.10
2022-12-03T03:23:16.921Z,7.00
2022-12-03T03:25:46.148Z,7.00
2022-12-03T03:28:13.341Z,7.00
2022-12-03T03:30:40.145Z,7.00
2022-12-03T03:33:06.856Z,7.00
2022-12-03T03:35:33.547Z,7.00
2022-12-03T03:38:00.232Z,7.00
2022-12-03T03:40:26.971Z,7.00
2022-12-03T03:42:53.649Z,7.00
2022-12-03T03:45:25.475Z,7.00
2022-12-03T03:47:55.325Z,7.00
2022-12-03T03:50:22.089Z,7.00
2022-12-03T03:52:48.764Z,7.00
2022-12-03T03:55:15.419Z,7.10
2022-12-03T03:57:42.121Z,7.00
2022-12-03T04:00:09.434Z,7.00
2022-12-03T04:02:36.466Z,7.00
2022-12-03T04:05:03.165Z,7.00
2022-12-03T04:07:29.973Z,7.00
2022-12-03T04:09:56.698Z,7.00
2022-12-03T04:12:23.360Z,7.00
2022-12-03T04:14:50.148Z,7.10
2022-12-03T04:17:16.870Z,7.00
2022-12-03T04:19:43.576Z,7.00
2022-12-03T04:22:10.227Z,7.00
2022-12-03T04:24:36.906Z,7.10
2022-12-03T04:27:03.652Z,7.00
2022-12-03T04:29:30.351Z,7.00
2022-12-03T04:31:57.032Z,7.00
2022-12-03T04:34:23.729Z,7.00
2022-12-03T04:36:50.474Z,7.00
2022-12-03T04:39:17.126Z,7.00
2022-12-03T04:41:43.827Z,7.00
2022-12-03T04:44:10.491Z,7.00
2022-12-03T04:46:37.146Z,7.00
2022-12-03T04:49:03.844Z,7.00
2022-12-03T04:51:30.539Z,7.00
2022-12-03T04:53:57.257Z,7.00
2022-12-03T04:56:23.952Z,6.90
2022-12-03T04:58:50.637Z,6.90
2022-12-03T05:01:17.376Z,7.00
2022-12-03T05:03:44.062Z,6.90
2022-12-03T05:06:10.759Z,6.90
2022-12-03T05:08:37.395Z,6.90
2022-12-03T05:11:04.047Z,6.90
2022-12-03T05:13:30.724Z,6.90
2022-12-03T05:15:57.387Z,6.90
2022-12-03T05:18:24.040Z,6.90
2022-12-03T05:20:53.561Z,6.80
2022-12-03T05:23:20.563Z,6.80
2022-12-03T05:25:47.273Z,6.80
2022-12-03T05:28:14.016Z,6.80
2022-12-03T05:30:40.800Z,6.80
2022-12-03T05:33:07.521Z,6.90
2022-12-03T05:35:35.306Z,6.90
2022-12-03T05:38:02.008Z,6.90
2022-12-03T05:40:28.671Z,6.80
2022-12-03T05:42:55.390Z,6.80
2022-12-03T05:45:25.420Z,6.80
2022-12-03T05:47:52.941Z,6.80
2022-12-03T05:50:20.489Z,6.80
2022-12-03T05:52:47.304Z,6.80
2022-12-03T05:55:14.039Z,6.80
2022-12-03T05:57:40.717Z,6.90
2022-12-03T06:00:12.834Z,6.80
2022-12-03T06:02:39.585Z,6.90
2022-12-03T06:05:07.219Z,6.90
2022-12-03T06:07:33.954Z,6.90
2022-12-03T06:10:00.688Z,6.90
2022-12-03T06:12:27.381Z,6.90
2022-12-03T06:14:54.209Z,6.90
2022-12-03T06:17:21.215Z,6.90
2022-12-03T06:19:47.891Z,6.90
2022-12-03T06:22:14.583Z,6.90
2022-12-03T06:24:41.268Z,6.90
2022-12-03T06:27:07.938Z,7.00
2022-12-03T06:29:34.623Z,7.00
2022-12-03T06:32:01.349Z,7.00
2022-12-03T06:34:28.038Z,7.00
2022-12-03T06:36:54.776Z,7.00
2022-12-03T06:39:21.542Z,7.00
2022-12-03T06:41:48.235Z,7.10
2022-12-03T06:44:14.972Z,7.10
2022-12-03T06:46:41.654Z,7.10
2022-12-03T06:49:08.532Z,7.10
2022-12-03T06:51:38.340Z,7.20
2022-12-03T06:54:05.190Z,7.20
2022-12-03T06:56:36.807Z,7.20
2022-12-03T06:59:05.904Z,7.20
2022-12-03T07:01:32.689Z,7.20
2022-12-03T07:03:59.446Z,7.20
2022-12-03T07:06:26.138Z,7.20
2022-12-03T07:08:52.864Z,7.20
2022-12-03T07:11:19.576Z,7.30
2022-12-03T07:13:46.369Z,7.30
2022-12-03T07:16:13.085Z,7.30
2022-12-03T07:18:39.815Z,7.20
2022-12-03T07:21:06.537Z,7.20
2022-12-03T07:23:33.230Z,7.30
2022-12-03T07:25:59.892Z,7.30
2022-12-03T07:28:26.573Z,7.30
2022-12-03T07:30:53.268Z,7.30
2022-12-03T07:33:19.939Z,7.20
2022-12-03T07:35:46.629Z,7.30
2022-12-03T07:38:13.313Z,7.30
2022-12-03T07:40:39.991Z,7.30
2022-12-03T07:43:06.663Z,7.30
2022-12-03T07:45:33.298Z,7.30
2022-12-03T07:48:00.014Z,7.30
2022-12-03T07:50:26.740Z,7.30
2022-12-03T07:52:53.828Z,7.30
2022-12-03T07:55:20.618Z,7.30
2022-12-03T07:57:47.386Z,7.30
2022-12-03T08:00:14.794Z,7.40
2022-12-03T08:02:41.549Z,7.30
2022-12-03T08:05:08.447Z,7.40
2022-12-03T08:07:35.354Z,7.40
2022-12-03T08:10:02.083Z,7.40
2022-12-03T08:12:29.975Z,7.30
2022-12-03T08:14:56.891Z,7.30
2022-12-03T08:17:25.103Z,7.40
2022-12-03T08:19:51.780Z,7.40
2022-12-03T08:22:18.519Z,7.40
2022-12-03T08:24:45.197Z,7.40
2022-12-03T08:27:16.846Z,7.40
2022-12-03T08:29:43.648Z,7.40
2022-12-03T08:32:11.289Z,7.40
2022-12-03T08:34:44.511Z,7.40
2022-12-03T08:37:18.066Z,7.40
2022-12-03T08:39:49.049Z,7.40
2022-12-03T08:42:20.893Z,7.50
2022-12-03T08:44:47.533Z,7.50
2022-12-03T08:47:19.141Z,7.40
2022-12-03T08:49:56.326Z,7.40
2022-12-03T08:52:26.699Z,7.40
2022-12-03T08:54:54.937Z,7.50
2022-12-03T08:57:40.919Z,7.40
2022-12-03T09:00:23.114Z,7.50
2022-12-03T09:02:59.091Z,7.50
2022-12-03T09:05:30.672Z,7.50
2022-12-03T09:07:57.381Z,7.50
2022-12-03T09:10:24.341Z,7.60
2022-12-03T09:12:51.170Z,7.60
2022-12-03T09:15:17.971Z,7.60
2022-12-03T09:17:44.658Z,7.60
2022-12-03T09:20:11.724Z,7.60
2022-12-03T09:22:38.384Z,7.70
2022-12-03T09:25:05.486Z,7.70
2022-12-03T09:27:32.147Z,7.70
2022-12-03T09:29:58.893Z,7.80
2022-12-03T09:32:25.684Z,7.90
2022-12-03T09:34:53.778Z,7.90
2022-12-03T09:37:20.627Z,8.00
2022-12-03T09:39:47.377Z,8.00
2022-12-03T09:42:14.217Z,8.00
2022-12-03T09:44:40.935Z,8.00
2022-12-03T09:47:07.773Z,8.00
2022-12-03T09:49:35.862Z,8.10
2022-12-03T09:52:03.059Z,8.10
2022-12-03T09:54:30.079Z,8.20
2022-12-03T09:56:57.230Z,8.20
2022-12-03T09:59:26.151Z,8.20
2022-12-03T10:01:53.547Z,8.20
2022-12-03T10:04:20.409Z,8.20
2022-12-03T10:06:47.410Z,8.30
2022-12-03T10:09:14.674Z,8.40
2022-12-03T10:11:41.381Z,8.40
2022-12-03T10:14:09.181Z,8.40
2022-12-03T10:16:36.080Z,8.40
2022-12-03T10:19:02.864Z,8.40
2022-12-03T10:21:37.527Z,8.50
2022-12-03T10:24:22.610Z,8.50
2022-12-03T10:26:50.445Z,8.50
2022-12-03T10:29:37.401Z,8.50
2022-12-03T10:32:06.294Z,8.50
2022-12-03T10:34:42.142Z,8.50
2022-12-03T10:37:14.654Z,8.50
2022-12-03T10:40:07.198Z,8.60
2022-12-03T10:42:35.332Z,8.70
2022-12-03T10:45:25.294Z,8.80
2022-12-03T10:48:14.857Z,8.90
2022-12-03T10:50:48.497Z,8.90
2022-12-03T10:53:15.394Z,9.00
2022-12-03T10:55:42.983Z,9.00
2022-12-03T10:58:22.064Z,9.10
2022-12-03T11:00:49.803Z,9.20
2022-12-03T11:03:27.636Z,9.20
2022-12-03T11:05:55.221Z,9.20
2022-12-03T11:08:26.949Z,9.10
2022-12-03T11:11:02.659Z,9.10
2022-12-03T11:13:32.399Z,9.00
2022-12-03T11:16:03.186Z,9.00
2022-12-03T11:18:36.246Z,9.00
2022-12-03T11:21:06.118Z,8.90
2022-12-03T11:23:45.022Z,8.90
2022-12-03T11:26:18.861Z,8.80
2022-12-03T11:28:46.214Z,8.70
2022-12-03T11:31:47.596Z,8.70
2022-12-03T11:34:20.193Z,8.70
2022-12-03T11:37:11.828Z,8.70
2022-12-03T11:39:50.973Z,8.70
2022-12-03T11:42:23.513Z,8.70
2022-12-03T11:45:13.568Z,8.70
2022-12-03T11:47:45.713Z,8.80
2022-12-03T11:50:39.654Z,8.80
2022-12-03T11:53:21.255Z,8.90
2022-12-03T11:56:04.386Z,9.00
2022-12-03T11:58:31.651Z,9.00
2022-12-03T12:00:59.675Z,9.00
2022-12-03T12:03:27.314Z,9.00
2022-12-03T12:06:20.597Z,9.10
2022-12-03T12:08:58.160Z,9.10
2022-12-03T12:11:34.467Z,9.10
2022-12-03T12:14:04.891Z,9.20
2022-12-03T12:16:44.718Z,9.20
2022-12-03T12:19:36.929Z,9.30
2022-12-03T12:22:16.556Z,9.20
2022-12-03T12:24:43.239Z,9.20
2022-12-03T12:27:11.236Z,9.20
2022-12-03T12:29:40.168Z,9.20
2022-12-03T12:32:09.895Z,9.30
2022-12-03T12:34:40.503Z,9.50
2022-12-03T12:37:20.112Z,9.70
2022-12-03T12:39:46.810Z,9.80
2022-12-03T12:42:37.520Z,9.80
2022-12-03T12:45:23.972Z,9.80
2022-12-03T12:47:58.032Z,9.70
2022-12-03T12:50:24.794Z,9.60
2022-12-03T12:52:57.182Z,9.60
2022-12-03T12:55:23.880Z,9.50
2022-12-03T12:57:51.127Z,9.40
2022-12-03T13:00:20.345Z,9.40
2022-12-03T13:02:51.832Z,9.30
2022-12-03T13:05:18.631Z,9.30
2022-12-03T13:07:45.439Z,9.20
2022-12-03T13:10:35.272Z,9.20
2022-12-03T13:13:44.094Z,9.20
2022-12-03T13:16:23.160Z,9.10
2022-12-03T13:18:53.415Z,9.10
2022-12-03T13:21:37.515Z,9.10
2022-12-03T13:24:20.714Z,9.10
2022-12-03T13:26:47.393Z,9.00
2022-12-03T13:29:15.273Z,9.00
2022-12-03T13:31:44.123Z,8.90
2022-12-03T13:34:17.133Z,8.90
2022-12-03T13:36:44.420Z,8.90
2022-12-03T13:39:31.608Z,8.90
2022-12-03T13:42:01.338Z,8.90
2022-12-03T13:44:29.299Z,8.90
2022-12-03T13:46:55.981Z,8.90
2022-12-03T13:49:23.259Z,8.90
2022-12-03T13:51:50.098Z,8.80
2022-12-03T13:54:21.565Z,8.90
2022-12-03T13:56:48.852Z,8.80
2022-12-03T13:59:15.682Z,8.80
2022-12-03T14:01:43.024Z,8.80
2022-12-03T14:04:10.044Z,8.70
2022-12-03T14:06:36.793Z,8.70
2022-12-03T14:09:03.689Z,8.70
2022-12-03T14:11:30.334Z,8.70
2022-12-03T14:13:57.047Z,8.70
2022-12-03T14:16:23.768Z,8.80
2022-12-03T14:18:50.556Z,8.80
2022-12-03T14:21:17.312Z,8.80
2022-12-03T14:23:43.957Z,8.70
2022-12-03T14:26:10.615Z,8.60
2022-12-03T14:28:37.327Z,8.60
2022-12-03T14:31:04.025Z,8.50
2022-12-03T14:33:30.688Z,8.50
2022-12-03T14:35:57.384Z,8.50
2022-12-03T14:38:24.050Z,8.50
2022-12-03T14:40:51.388Z,8.50
2022-12-03T14:43:18.056Z,8.50
2022-12-03T14:45:44.825Z,8.60
2022-12-03T14:48:11.605Z,8.60
2022-12-03T14:50:38.302Z,8.60
2022-12-03T14:53:05.015Z,8.60
2022-12-03T14:55:31.666Z,8.60
2022-12-03T14:57:58.355Z,8.50
2022-12-03T15:00:25.092Z,8.50
2022-12-03T15:02:51.838Z,8.50
2022-12-03T15:05:22.105Z,8.50
2022-12-03T15:07:53.746Z,8.40
2022-12-03T15:10:20.503Z,8.40
2022-12-03T15:12:47.206Z,8.40
2022-12-03T15:15:14.885Z,8.40
2022-12-03T15:17:41.628Z,8.30
2022-12-03T15:20:09.614Z,8.40
2022-12-03T15:22:36.308Z,8.40
2022-12-03T15:25:03.050Z,8.40
2022-12-03T15:27:29.720Z,8.40
2022-12-03T15:29:56.681Z,8.40
2022-12-03T15:32:23.459Z,8.40
2022-12-03T15:34:50.154Z,8.40
2022-12-03T15:37:17.275Z,8.30
2022-12-03T15:39:48.432Z,8.40
2022-12-03T15:42:15.623Z,8.40
2022-12-03T15:44:42.314Z,8.40
2022-12-03T15:47:09.013Z,8.40
2022-12-03T15:49:35.687Z,8.40
2022-12-03T15:52:02.364Z,8.40
2022-12-03T15:54:29.076Z,8.30
2022-12-03T15:56:57.646Z,8.30
2022-12-03T15:59:24.708Z,8.30
2022-12-03T16:01:51.496Z,8.30
2022-12-03T16:04:18.219Z,8.30
2022-12-03T16:06:44.890Z,8.30
2022-12-03T16:09:11.561Z,8.20
2022-12-03T16:11:38.244Z,8.20
2022-12-03T16:14:04.905Z,8.20
2022-12-03T16:16:31.678Z,8.20
2022-12-03T16:18:58.421Z,8.20
2022-12-03T16:21:27.004Z,8.20
2022-12-03T16:23:54.722Z,8.20
2022-12-03T16:26:22.143Z,8.20
2022-12-03T16:28:48.854Z,8.20
2022-12-03T16:31:15.584Z,8.10
2022-12-03T16:33:42.346Z,8.10
2022-12-03T16:36:09.207Z,8.10
2022-12-03T16:38:35.899Z,8.10
2022-12-03T16:41:02.583Z,8.10
2022-12-03T16:43:29.277Z,8.10
2022-12-03T16:45:56.069Z,8.10
2022-12-03T16:48:22.980Z,8.10
2022-12-03T16:50:49.665Z,8.10
2022-12-03T16:53:16.360Z,8.20
2022-12-03T16:55:43.042Z,8.20
2022-12-03T16:58:09.734Z,8.20
2022-12-03T17:00:36.432Z,8.20
2022-12-03T17:03:03.247Z,8.20
2022-12-03T17:05:29.948Z,8.20
2022-12-03T17:07:56.669Z,8.20
2022-12-03T17:10:23.477Z,8.20
2022-12-03T17:15:36.936Z,8.20
2022-12-03T17:18:03.763Z,8.20
2022-12-03T17:20:31.223Z,8.20
2022-12-03T17:22:58.467Z,8.10
2022-12-03T17:25:25.230Z,8.20
2022-12-03T17:27:51.976Z,8.10
2022-12-03T17:30:18.768Z,8.20
2022-12-03T17:32:45.531Z,8.20
2022-12-03T17:35:12.335Z,8.20
2022-12-03T17:37:39.040Z,8.10
2022-12-03T17:40:08.795Z,8.10
2022-12-03T17:42:35.475Z,8.20
2022-12-03T17:45:02.362Z,8.20
2022-12-03T17:47:29.058Z,8.20
2022-12-03T17:49:56.124Z,8.20
2022-12-03T17:52:23.197Z,8.20
2022-12-03T17:55:09.925Z,8.30
2022-12-03T17:57:36.711Z,8.20
2022-12-03T18:00:03.705Z,8.20
2022-12-03T18:02:30.443Z,8.20
2022-12-03T18:04:57.096Z,8.10
2022-12-03T18:07:23.786Z,8.10
2022-12-03T18:09:50.447Z,8.10
2022-12-03T18:12:17.165Z,8.10
2022-12-03T18:14:43.867Z,8.10
2022-12-03T18:17:10.552Z,8.10
2022-12-03T18:19:37.199Z,8.00
2022-12-03T18:22:03.913Z,8.00
2022-12-03T18:24:30.622Z,8.00
2022-12-03T18:26:57.311Z,8.00
2022-12-03T18:29:23.987Z,8.00
2022-12-03T18:31:50.832Z,8.00
2022-12-03T18:34:17.548Z,8.00
2022-12-03T18:36:44.260Z,7.90
2022-12-03T18:39:15.139Z,7.90
2022-12-03T18:41:41.852Z,7.90
2022-12-03T18:44:09.738Z,7.90
2022-12-03T18:46:53.913Z,7.90
2022-12-03T18:49:21.438Z,7.90
2022-12-03T18:51:48.558Z,7.90
2022-12-03T18:54:15.691Z,7.90
2022-12-03T18:56:42.396Z,7.90
2022-12-03T18:59:09.172Z,7.90
2022-12-03T19:01:36.159Z,7.90
2022-12-03T19:04:03.006Z,7.80
2022-12-03T19:06:29.667Z,7.80
2022-12-03T19:08:56.412Z,7.80
2022-12-03T19:11:23.181Z,7.80
2022-12-03T19:13:49.863Z,7.80
2022-12-03T19:16:16.643Z,7.90
2022-12-03T19:18:43.549Z,7.90
2022-12-03T19:21:11.713Z,7.90
2022-12-03T19:23:38.526Z,7.90
2022-12-03T19:26:06.375Z,7.90
2022-12-03T19:28:33.253Z,7.80
2022-12-03T19:31:01.804Z,7.80
2022-12-03T19:33:28.832Z,7.80
2022-12-03T19:35:56.129Z,7.80
2022-12-03T19:38:23.509Z,7.80
2022-12-03T19:41:07.229Z,7.80
2022-12-03T19:43:35.120Z,7.80
2022-12-03T19:46:06.129Z,7.80
2022-12-03T19:48:33.188Z,7.80
2022-12-03T19:51:19.762Z,7.80
2022-12-03T19:53:46.638Z,7.80
2022-12-03T19:56:14.909Z,7.80
2022-12-03T19:58:42.241Z,7.80
2022-12-03T20:01:10.238Z,7.80
2022-12-03T20:03:43.725Z,7.70
2022-12-03T20:06:10.982Z,7.70
2022-12-03T20:08:37.853Z,7.70
2022-12-03T20:11:12.564Z,7.70
2022-12-03T20:13:39.322Z,7.70
2022-12-03T20:16:06.672Z,7.70
2022-12-03T20:18:33.423Z,7.70
2022-12-03T20:21:00.643Z,7.70
2022-12-03T20:23:27.638Z,7.70
2022-12-03T20:25:54.590Z,7.70
2022-12-03T20:28:21.275Z,7.70
2022-12-03T20:31:00.946Z,7.70
2022-12-03T20:33:27.690Z,7.70
2022-12-03T20:35:55.148Z,7.70
2022-12-03T20:38:22.481Z,7.70
2022-12-03T20:40:49.241Z,7.60
2022-12-03T20:43:16.133Z,7.60
2022-12-03T20:45:42.887Z,7.60
2022-12-03T20:48:09.561Z,7.60
2022-12-03T20:50:38.351Z,7.60
2022-12-03T20:53:23.706Z,7.60
2022-12-03T20:55:56.019Z,7.60
2022-12-03T20:58:22.708Z,7.60
2022-12-03T21:00:49.477Z,7.60
2022-12-03T21:03:16.277Z,7.50
2022-12-03T21:05:43.090Z,7.50
2022-12-03T21:08:10.549Z,7.50
2022-12-03T21:10:38.525Z,7.50
2022-12-03T21:13:05.219Z,7.50
2022-12-03T21:15:31.904Z,7.50
2022-12-03T21:17:58.616Z,7.40
2022-12-03T21:20:25.369Z,7.40
2022-12-03T21:22:52.020Z,7.40
2022-12-03T21:25:18.715Z,7.40
2022-12-03T21:27:45.380Z,7.50
2022-12-03T21:30:12.311Z,7.50
2022-12-03T21:32:39.024Z,7.50
2022-12-03T21:35:06.026Z,7.50
2022-12-03T21:37:32.827Z,7.50
2022-12-03T21:39:59.591Z,7.50
2022-12-03T21:42:35.711Z,7.40
2022-12-03T21:45:04.840Z,7.40
2022-12-03T21:47:36.849Z,7.40
2022-12-03T21:50:05.620Z,7.30
2022-12-03T21:52:33.191Z,7.30
2022-12-03T21:54:59.918Z,7.20
2022-12-03T21:57:26.667Z,7.20
2022-12-03T21:59:53.820Z,7.20
2022-12-03T22:02:20.775Z,7.20
2022-12-03T22:04:50.702Z,7.20
2022-12-03T22:07:17.500Z,7.20
2022-12-03T22:09:44.321Z,7.20
2022-12-03T22:12:10.975Z,7.20
2022-12-03T22:14:37.672Z,7.20
2022-12-03T22:17:04.351Z,7.20
2022-12-03T22:19:31.336Z,7.30
2022-12-03T22:21:58.061Z,7.30
2022-12-03T22:24:24.767Z,7.30
2022-12-03T22:26:51.467Z,7.30
2022-12-03T22:29:18.270Z,7.30
2022-12-03T22:31:44.966Z,7.30
2022-12-03T22:34:11.675Z,7.30
2022-12-03T22:36:38.371Z,7.30
2022-12-03T22:39:05.078Z,7.30
2022-12-03T22:41:31.728Z,7.30
2022-12-03T22:43:58.438Z,7.30
2022-12-03T22:46:25.204Z,7.30
2022-12-03T22:48:51.932Z,7.30
2022-12-03T22:51:23.242Z,7.30
2022-12-03T22:53:59.885Z,7.40
2022-12-03T22:56:27.080Z,7.30
2022-12-03T22:58:53.906Z,7.30
2022-12-03T23:01:39.725Z,7.30
2022-12-03T23:04:06.962Z,7.30
2022-12-03T23:06:34.800Z,7.30
2022-12-03T23:09:01.857Z,7.30
2022-12-03T23:11:28.603Z,7.30
2022-12-03T23:13:55.501Z,7.30
2022-12-03T23:16:23.990Z,7.30
2022-12-03T23:18:50.788Z,7.30
2022-12-03T23:21:28.482Z,7.30
2022-12-03T23:23:56.568Z,7.30
2022-12-03T23:26:23.251Z,7.40
2022-12-03T23:28:50.070Z,7.40
2022-12-03T23:31:27.193Z,7.40
2022-12-03T23:33:55.495Z,7.30
2022-12-03T23:36:22.408Z,7.40
2022-12-03T23:38:49.103Z,7.40
2022-12-03T23:41:17.345Z,7.30
2022-12-03T23:43:44.116Z,7.30
2022-12-03T23:46:11.657Z,7.30
2022-12-03T23:48:38.600Z,7.40
2022-12-03T23:51:13.741Z,7.30
2022-12-03T23:53:40.645Z,7.40
2022-12-03T23:56:08.562Z,7.40
2022-12-03T23:58:35.402Z,7.40
